Ogunquit, ME

8:23 PM EST on December 17, 2014 (GMT -0500)
RAWS RACHEL CARSON - FTS ME US | Change Station
CLOSE
Current Station
Personal Weather Station
Location: Ogunquit, ME
Elevation: 49 ft
Nearby Weather Stations

Elev 49 ft 43.28 °N, 70.59 °W | Updated 58 minutes ago

Overcast
Overcast
40 °F
Feels Like 40 °F
N
2
Wind Variable Wind from WNW
Gusts 8.0 mph

Today
High -- | Low -- °F
--% Chance of Precip.
Yesterday
High -- | Low -- °F
Precip. -- in
7:08 AM 4:08 PM
Waning Crescent, 18% visible
Pressure 29.70 in
Visibility 10.0 miles
Clouds Overcast 1100 ft
Windchill 40 °F
Dew Point 38 °F
Humidity 91%
Rainfall -999.00 in
Snow Depth Not available.
UV 0 out of 12
Pollen .10 out of 12
Air Quality Not available.
Flu Activity Not available.
METAR KSFM 180115Z AUTO 30004KT 10SM OVC011 04/01 A2970 RMK AO1

More Conditions Fewer Conditions

Pressure 29.70 in
Visibility 10.0 miles
Clouds Overcast 1100 ft
Windchill 40 °F
Dew Point 38 °F
Humidity 91%
Rainfall -999.00 in
Snow Depth Not available.
UV 0 out of 12
Pollen .10 out of 12
Air Quality Not available.
Flu Activity Not available.
METAR KSFM 180115Z AUTO 30004KT 10SM OVC011 04/01 A2970 RMK AO1

More Conditions Fewer Conditions

10-Day Weather Forecast

Almanac

Astronomy

Dec. 17, 2014 Rise Set
Actual Time
Civil Twilight
Nautical Twilight
Astronomical Twilight
Moon
Length of Visible Light
Length of Day
Tomorrow will be .
, % of the Moon is Illuminated

Today's Extremes

State Highs State Lows

Community

WunderPhotos

Upload Photos

1,778,847 photos uploaded!

WunderBlogs® & News

Nearby

Air Quality

  Air Quality AQ Index Pollutant
Not available.

Snow Depth

Station Depth Elevation

Earthquake Activity

City Distance Mag. Time & Date
Minimum magnitude displayed is 2.5.

Coastal Water Temperatures

Place Temperature

Nearby Weather Stations